Time;durP1;ratioP1;P1;durP2;ratioP2;P2;SDS_P1;SDS_P2;PMS_P1;PMS_P2;Temp;Humidity;BMP_temperature;BMP_pressure;BME280_temperature;BME280_humidity;BME280_pressure;Samples;Min_cycle;Max_cycle;Signal;HPM_P1;HPM_P2
2024/01/24 05:32:00;;;;;;;0.00;0.00;;;14.60;88.20;;;;;;5209359;23;20042;-84
2024/01/24 05:34:26;;;;;;;0.00;0.00;;;14.60;88.50;;;;;;4995916;28;20030;-84
2024/01/24 05:36:53;;;;;;;0.10;0.10;;;14.60;88.70;;;;;;4989308;28;20514;-83
2024/01/24 05:39:19;;;;;;;0.00;0.00;;;14.50;88.80;;;;;;4991969;28;20395;-84
2024/01/24 05:41:45;;;;;;;0.00;0.00;;;14.50;88.80;;;;;;4992600;28;20026;-84
2024/01/24 05:44:10;;;;;;;0.00;0.00;;;14.40;88.80;;;;;;4995311;28;20371;-82
2024/01/24 05:46:36;;;;;;;0.00;0.00;;;14.40;89.10;;;;;;4995991;28;20037;-84
2024/01/24 05:49:01;;;;;;;0.10;0.10;;;14.40;89.10;;;;;;4995498;28;20045;-84
2024/01/24 05:51:27;;;;;;;0.00;0.00;;;14.40;89.00;;;;;;4994710;28;20022;-82
2024/01/24 05:53:53;;;;;;;0.10;0.10;;;14.30;89.00;;;;;;4999465;28;20455;-82
2024/01/24 05:56:19;;;;;;;0.10;0.10;;;14.40;89.10;;;;;;4995595;28;20502;-86
2024/01/24 05:58:48;;;;;;;0.10;0.10;;;14.30;89.20;;;;;;4998783;28;20069;-85
2024/01/24 06:01:14;;;;;;;0.00;0.00;;;14.30;89.30;;;;;;4997031;28;20029;-84
2024/01/24 06:03:41;;;;;;;0.10;0.10;;;14.30;89.30;;;;;;4994831;28;20015;-81
2024/01/24 06:06:06;;;;;;;0.10;0.10;;;14.30;89.40;;;;;;4998836;28;20030;-87
2024/01/24 06:08:32;;;;;;;0.00;0.00;;;14.30;89.50;;;;;;4998701;28;20359;-84
2024/01/24 06:10:58;;;;;;;0.00;0.00;;;14.30;89.50;;;;;;4999911;28;20113;-83
2024/01/24 06:13:24;;;;;;;0.10;0.10;;;14.30;89.50;;;;;;4994922;28;20031;-86
2024/01/24 06:15:53;;;;;;;0.10;0.10;;;14.30;89.70;;;;;;4980452;28;20058;-88
2024/01/24 06:18:19;;;;;;;0.10;0.10;;;14.30;89.60;;;;;;4995576;28;20086;-87
2024/01/24 06:23:39;;;;;;;0.05;0.05;;;14.30;89.40;;;;;;4993969;28;20114;-88
2024/01/24 06:26:04;;;;;;;0.10;0.10;;;14.30;89.30;;;;;;4999414;28;20065;-75
2024/01/24 06:28:30;;;;;;;0.10;0.10;;;14.30;89.50;;;;;;4979564;28;20038;-76
2024/01/24 06:30:56;;;;;;;0.10;0.10;;;14.30;89.40;;;;;;4987622;28;20474;-74
2024/01/24 06:33:21;;;;;;;0.00;0.00;;;14.30;89.20;;;;;;4979872;28;20058;-74
2024/01/24 06:35:47;;;;;;;0.10;0.10;;;14.30;89.10;;;;;;4979216;28;20070;-74
2024/01/24 06:38:14;;;;;;;0.00;0.00;;;14.30;88.90;;;;;;4992035;28;20102;-74
2024/01/24 06:40:40;;;;;;;0.10;0.10;;;14.30;88.60;;;;;;4999134;28;20018;-75
2024/01/24 06:43:06;;;;;;;0.03;0.03;;;14.20;88.90;;;;;;4998688;28;20023;-74
2024/01/24 06:45:32;;;;;;;0.03;0.00;;;14.20;88.70;;;;;;4998784;28;20032;-75
2024/01/24 06:47:58;;;;;;;0.00;0.00;;;14.20;88.60;;;;;;4980244;28;20027;-75
2024/01/24 06:50:24;;;;;;;0.10;0.10;;;14.10;88.70;;;;;;4978426;28;20096;-74
2024/01/24 06:52:50;;;;;;;0.10;0.10;;;14.10;88.70;;;;;;4996755;28;20053;-75
2024/01/24 06:55:19;;;;;;;0.10;0.10;;;14.20;88.60;;;;;;4998607;28;20031;-74
2024/01/24 06:57:44;;;;;;;0.10;0.10;;;14.10;88.20;;;;;;4997276;28;20085;-74
2024/01/24 07:00:11;;;;;;;0.10;0.10;;;14.00;88.40;;;;;;4998709;28;20027;-74
2024/01/24 07:02:37;;;;;;;0.10;0.10;;;14.10;88.40;;;;;;4998708;28;20019;-75
2024/01/24 07:05:03;;;;;;;0.10;0.10;;;14.10;88.20;;;;;;4997675;28;20521;-75
2024/01/24 07:07:29;;;;;;;0.10;0.10;;;14.10;87.80;;;;;;4998601;28;20030;-76
2024/01/24 07:09:55;;;;;;;0.00;0.00;;;14.10;87.80;;;;;;4993935;28;20058;-76
2024/01/24 07:12:20;;;;;;;0.00;0.00;;;14.00;87.90;;;;;;4996074;28;20079;-76
2024/01/24 07:14:48;;;;;;;0.05;0.05;;;14.00;87.70;;;;;;4998450;28;20038;-76
2024/01/24 07:17:14;;;;;;;0.10;0.10;;;14.00;87.50;;;;;;4998135;28;20027;-75
2024/01/24 07:19:39;;;;;;;0.10;0.10;;;13.90;87.60;;;;;;4997451;28;20030;-76
2024/01/24 07:22:05;;;;;;;0.00;0.00;;;14.00;87.40;;;;;;4998461;28;20092;-75
2024/01/24 07:24:31;;;;;;;0.00;0.00;;;13.90;87.10;;;;;;4997281;28;20129;-76
2024/01/24 07:26:57;;;;;;;0.10;0.10;;;14.00;87.00;;;;;;4988643;28;20445;-76
2024/01/24 07:29:23;;;;;;;0.10;0.10;;;13.90;87.10;;;;;;4978552;28;20094;-76
2024/01/24 07:31:49;;;;;;;0.00;0.00;;;13.90;87.30;;;;;;4978622;28;20047;-76
2024/01/24 07:34:15;;;;;;;0.10;0.10;;;13.90;86.80;;;;;;4997817;28;20498;-76
2024/01/24 07:36:42;;;;;;;0.00;0.00;;;13.90;87.20;;;;;;4987967;28;20607;-76
2024/01/24 07:39:08;;;;;;;0.00;0.00;;;13.90;87.00;;;;;;4993696;28;20102;-76
2024/01/24 07:41:34;;;;;;;0.10;0.10;;;13.90;87.10;;;;;;4980143;28;20494;-76
2024/01/24 07:44:00;;;;;;;0.03;0.03;;;13.90;86.90;;;;;;4978567;28;20050;-76
2024/01/24 07:46:27;;;;;;;0.10;0.10;;;14.00;87.00;;;;;;4989075;28;20513;-76
2024/01/24 07:48:53;;;;;;;0.10;0.10;;;14.00;86.80;;;;;;4997860;28;20402;-76
2024/01/24 07:51:20;;;;;;;0.00;0.00;;;14.00;86.70;;;;;;4993252;28;20042;-76
2024/01/24 07:53:47;;;;;;;0.00;0.00;;;14.00;86.80;;;;;;4997539;28;20022;-76
2024/01/24 07:56:14;;;;;;;0.10;0.10;;;14.00;86.80;;;;;;4997607;28;20165;-76
2024/01/24 07:58:40;;;;;;;0.10;0.10;;;14.00;86.70;;;;;;4997664;28;20022;-76
2024/01/24 08:01:08;;;;;;;0.10;0.10;;;14.00;86.70;;;;;;4997304;28;20125;-76
2024/01/24 08:03:34;;;;;;;0.10;0.10;;;14.10;86.60;;;;;;4997515;28;20027;-76
2024/01/24 08:06:00;;;;;;;0.10;0.10;;;14.10;86.40;;;;;;4978855;28;20042;-76
2024/01/24 08:08:26;;;;;;;0.10;0.10;;;14.10;86.30;;;;;;4993172;28;20027;-76
2024/01/24 08:10:52;;;;;;;0.05;0.05;;;14.20;86.00;;;;;;4991560;28;20457;-76
2024/01/24 08:13:19;;;;;;;0.10;0.10;;;14.10;85.90;;;;;;4996477;28;20039;-76
2024/01/24 08:15:48;;;;;;;0.10;0.10;;;14.20;86.00;;;;;;4997480;28;20034;-76
2024/01/24 08:18:14;;;;;;;0.10;0.10;;;14.20;85.90;;;;;;4996392;28;20037;-76
2024/01/24 08:20:40;;;;;;;0.00;0.00;;;14.20;85.60;;;;;;4997522;28;20082;-75
2024/01/24 08:23:05;;;;;;;0.10;0.10;;;14.30;85.70;;;;;;4983630;28;20033;-76
2024/01/24 08:25:31;;;;;;;0.10;0.10;;;14.20;85.40;;;;;;4987458;28;20494;-76
2024/01/24 08:27:57;;;;;;;0.10;0.10;;;14.20;85.50;;;;;;4978183;28;20458;-76
2024/01/24 08:30:23;;;;;;;0.10;0.10;;;14.30;85.40;;;;;;4977607;28;20479;-76
2024/01/24 08:32:48;;;;;;;0.10;0.10;;;14.30;85.10;;;;;;4985072;28;20073;-76
2024/01/24 08:35:17;;;;;;;0.10;0.10;;;14.30;85.20;;;;;;4994416;28;20040;-76
2024/01/24 08:37:43;;;;;;;0.10;0.10;;;14.30;85.10;;;;;;4990726;28;20081;-76
2024/01/24 08:40:10;;;;;;;0.10;0.10;;;14.30;84.90;;;;;;4995984;28;20026;-76
2024/01/24 08:42:36;;;;;;;0.10;0.10;;;14.30;85.10;;;;;;4986534;28;20022;-75
2024/01/24 08:45:02;;;;;;;0.10;0.10;;;14.30;84.60;;;;;;4991179;28;20149;-76
2024/01/24 08:47:27;;;;;;;0.10;0.10;;;14.30;84.90;;;;;;4987983;28;20058;-76
2024/01/24 08:49:56;;;;;;;0.05;0.05;;;14.40;84.50;;;;;;4987763;28;20019;-76
2024/01/24 08:52:22;;;;;;;0.10;0.10;;;14.40;84.50;;;;;;4985375;28;20552;-75
2024/01/24 08:54:48;;;;;;;0.10;0.10;;;14.50;84.60;;;;;;4992059;28;20554;-74
2024/01/24 08:57:14;;;;;;;0.00;0.00;;;14.50;84.50;;;;;;4993904;28;20121;-74
2024/01/24 08:59:40;;;;;;;0.10;0.10;;;14.50;84.20;;;;;;4990282;28;20059;-75
2024/01/24 09:02:07;;;;;;;0.10;0.10;;;14.50;84.20;;;;;;4990477;28;20053;-74
2024/01/24 09:04:33;;;;;;;0.10;0.10;;;14.60;84.30;;;;;;4989356;28;20422;-74
2024/01/24 09:06:59;;;;;;;0.10;0.10;;;14.70;84.30;;;;;;4985643;28;20888;-74
2024/01/24 09:09:25;;;;;;;0.10;0.10;;;14.70;84.10;;;;;;4986927;28;20418;-74
2024/01/24 09:11:51;;;;;;;0.10;0.10;;;14.80;83.90;;;;;;4987035;28;20031;-74
2024/01/24 09:14:16;;;;;;;0.10;0.10;;;14.70;83.90;;;;;;4987722;28;20495;-74
2024/01/24 09:16:42;;;;;;;0.10;0.10;;;14.70;83.80;;;;;;4987281;28;20041;-74
2024/01/24 09:19:08;;;;;;;0.00;0.00;;;14.80;83.70;;;;;;4986683;28;20091;-74
2024/01/24 09:21:33;;;;;;;0.10;0.10;;;14.80;83.90;;;;;;4985735;28;20066;-74
2024/01/24 09:23:59;;;;;;;0.10;0.10;;;14.90;83.70;;;;;;4990753;28;20014;-74
2024/01/24 09:26:25;;;;;;;0.10;0.10;;;14.90;83.60;;;;;;4988761;28;20065;-74
2024/01/24 09:28:51;;;;;;;0.10;0.10;;;15.00;83.70;;;;;;4987437;28;20033;-74
2024/01/24 09:31:17;;;;;;;0.10;0.10;;;15.00;83.50;;;;;;4991967;28;20047;-74
2024/01/24 09:33:42;;;;;;;0.10;0.10;;;15.20;83.40;;;;;;4993539;28;20101;-74
2024/01/24 09:36:08;;;;;;;0.10;0.10;;;15.10;83.40;;;;;;4991189;28;20039;-74
2024/01/24 09:38:35;;;;;;;0.10;0.10;;;15.20;83.20;;;;;;4989153;28;20023;-74
2024/01/24 09:41:07;;;;;;;0.10;0.10;;;15.20;83.00;;;;;;4992546;28;20033;-74
2024/01/24 09:43:38;;;;;;;0.10;0.10;;;15.30;83.00;;;;;;4992400;28;20022;-74
2024/01/24 09:46:11;;;;;;;0.20;0.20;;;15.40;82.70;;;;;;4990707;28;20112;-74
2024/01/24 09:48:37;;;;;;;0.20;0.20;;;15.40;82.60;;;;;;4992221;28;20050;-74
2024/01/24 09:51:03;;;;;;;0.40;0.40;;;15.40;82.10;;;;;;4981891;28;20093;-74
2024/01/24 09:53:32;;;;;;;0.63;0.63;;;15.50;82.10;;;;;;4992717;28;20030;-74
2024/01/24 09:55:59;;;;;;;0.20;0.20;;;15.70;81.80;;;;;;4987585;28;20074;-74
2024/01/24 09:58:25;;;;;;;0.30;0.30;;;15.70;82.00;;;;;;4980313;28;20431;-74
2024/01/24 10:00:52;;;;;;;0.10;0.10;;;15.70;81.30;;;;;;4985136;28;20081;-74
2024/01/24 10:03:18;;;;;;;0.10;0.10;;;15.60;81.60;;;;;;4996956;28;20068;-75
2024/01/24 10:05:46;;;;;;;0.20;0.20;;;15.50;81.80;;;;;;4984293;28;20053;-75
2024/01/24 10:08:11;;;;;;;0.20;0.20;;;15.70;81.60;;;;;;4993269;28;20022;-74
2024/01/24 10:10:37;;;;;;;0.10;0.10;;;15.90;81.30;;;;;;4999551;28;20072;-75
2024/01/24 10:13:03;;;;;;;0.10;0.10;;;16.00;80.70;;;;;;4994719;28;20402;-75
2024/01/24 10:15:30;;;;;;;0.10;0.10;;;16.20;80.40;;;;;;4999528;28;20026;-75
2024/01/24 10:17:56;;;;;;;0.10;0.10;;;16.20;80.00;;;;;;4999329;28;20030;-75
2024/01/24 10:20:21;;;;;;;0.10;0.10;;;16.20;80.10;;;;;;4997404;28;20022;-74
2024/01/24 10:22:47;;;;;;;0.10;0.10;;;16.20;80.00;;;;;;4995787;28;20019;-75
2024/01/24 10:25:13;;;;;;;0.10;0.10;;;16.30;80.10;;;;;;4998414;28;20117;-74
2024/01/24 10:27:40;;;;;;;0.10;0.10;;;16.30;79.40;;;;;;4994246;28;20031;-75
2024/01/24 10:30:11;;;;;;;0.10;0.10;;;16.30;79.40;;;;;;4994817;28;20069;-76
2024/01/24 10:32:37;;;;;;;0.10;0.10;;;16.30;79.40;;;;;;4997854;28;20042;-76
2024/01/24 10:35:06;;;;;;;0.10;0.10;;;16.40;79.60;;;;;;4994178;28;20037;-76
2024/01/24 10:37:32;;;;;;;0.10;0.10;;;16.30;79.40;;;;;;4998499;28;20041;-76
2024/01/24 10:40:11;;;;;;;0.10;0.10;;;16.30;79.50;;;;;;4994741;28;20038;-76
2024/01/24 10:42:40;;;;;;;0.10;0.10;;;16.30;79.10;;;;;;4997059;28;20022;-76
2024/01/24 10:45:07;;;;;;;0.00;0.00;;;16.30;79.50;;;;;;4996241;28;20082;-76
2024/01/24 10:47:34;;;;;;;0.10;0.10;;;16.30;79.90;;;;;;4993286;28;20058;-76
2024/01/24 10:50:05;;;;;;;0.10;0.10;;;16.20;79.20;;;;;;4988815;28;20011;-76
2024/01/24 10:52:34;;;;;;;0.10;0.10;;;16.30;79.40;;;;;;4989963;28;20026;-76
2024/01/24 10:55:06;;;;;;;0.10;0.10;;;16.30;79.20;;;;;;4992121;28;20026;-76
2024/01/24 10:57:34;;;;;;;0.00;0.00;;;16.30;79.50;;;;;;4991256;28;20026;-76
2024/01/24 11:00:10;;;;;;;0.10;0.10;;;16.30;79.60;;;;;;4991102;28;20483;-76
2024/01/24 11:02:37;;;;;;;0.10;0.10;;;16.30;79.50;;;;;;4991999;28;20026;-76
2024/01/24 11:05:05;;;;;;;0.10;0.10;;;16.40;79.30;;;;;;4997079;28;20019;-76
2024/01/24 11:07:42;;;;;;;0.10;0.10;;;16.50;79.20;;;;;;4994309;28;20022;-76
2024/01/24 11:10:23;;;;;;;0.10;0.10;;;16.50;79.00;;;;;;4990861;28;20089;-76
2024/01/24 11:12:48;;;;;;;0.10;0.10;;;16.70;78.50;;;;;;4998593;28;20092;-76
2024/01/24 11:15:14;;;;;;;0.10;0.10;;;16.70;78.90;;;;;;4997768;28;20109;-76
2024/01/24 11:17:42;;;;;;;0.10;0.10;;;16.80;79.00;;;;;;4994528;28;20417;-76
2024/01/24 11:20:09;;;;;;;0.10;0.10;;;16.70;78.50;;;;;;4993988;28;20056;-76
2024/01/24 11:22:35;;;;;;;0.10;0.10;;;16.60;78.50;;;;;;4992433;28;20465;-76
2024/01/24 11:25:01;;;;;;;0.10;0.10;;;16.60;78.60;;;;;;4989580;28;20104;-75
2024/01/24 11:27:37;;;;;;;0.10;0.10;;;16.50;78.60;;;;;;4982905;28;20110;-76
2024/01/24 11:30:12;;;;;;;0.10;0.10;;;16.50;78.30;;;;;;4981959;28;20032;-76
2024/01/24 11:32:55;;;;;;;0.10;0.10;;;16.50;78.60;;;;;;4989889;28;20122;-76
2024/01/24 11:35:34;;;;;;;0.10;0.10;;;16.50;78.60;;;;;;4993166;28;20041;-76
2024/01/24 11:38:08;;;;;;;0.10;0.10;;;16.50;78.90;;;;;;4991444;28;20105;-80
2024/01/24 11:40:36;;;;;;;0.10;0.10;;;16.40;77.80;;;;;;4996506;28;20066;-80
2024/01/24 11:43:02;;;;;;;0.00;0.00;;;16.30;78.50;;;;;;4997937;28;20679;-80
2024/01/24 11:45:27;;;;;;;0.03;0.03;;;16.30;78.50;;;;;;4997618;28;20044;-80
2024/01/24 11:47:53;;;;;;;0.10;0.10;;;16.30;78.70;;;;;;4996901;28;20558;-80
2024/01/24 11:50:19;;;;;;;0.10;0.10;;;16.20;78.70;;;;;;4998188;28;20061;-80
2024/01/24 11:52:45;;;;;;;0.10;0.10;;;16.30;79.10;;;;;;4993708;28;20102;-81
2024/01/24 11:55:12;;;;;;;0.10;0.10;;;16.30;78.60;;;;;;4997694;28;20026;-80
2024/01/24 11:57:38;;;;;;;0.10;0.10;;;16.30;78.60;;;;;;4997818;28;20026;-80
2024/01/24 12:00:09;;;;;;;0.10;0.10;;;16.40;78.60;;;;;;4997793;28;20030;-80
2024/01/24 12:02:35;;;;;;;0.05;0.05;;;16.40;78.60;;;;;;4997087;28;20569;-80
2024/01/24 12:05:01;;;;;;;0.10;0.10;;;16.40;78.50;;;;;;4996242;28;20497;-80
2024/01/24 12:07:27;;;;;;;0.10;0.10;;;16.40;78.50;;;;;;4996724;28;20038;-80
2024/01/24 12:09:53;;;;;;;0.10;0.10;;;16.50;79.00;;;;;;4997056;28;20604;-80
2024/01/24 12:12:19;;;;;;;0.10;0.10;;;16.60;78.70;;;;;;4997598;28;20033;-81
2024/01/24 12:14:45;;;;;;;0.00;0.00;;;16.70;78.70;;;;;;4997720;28;20343;-80
2024/01/24 12:17:11;;;;;;;0.05;0.05;;;16.80;78.60;;;;;;4995290;28;20032;-80
2024/01/24 12:19:41;;;;;;;0.10;0.10;;;16.70;78.00;;;;;;4989394;28;20499;-80
2024/01/24 12:22:09;;;;;;;0.10;0.10;;;16.80;78.40;;;;;;4996349;28;20086;-81
2024/01/24 12:24:40;;;;;;;0.10;0.10;;;16.80;78.20;;;;;;4985603;28;20054;-80
2024/01/24 12:27:09;;;;;;;0.10;0.10;;;16.80;78.40;;;;;;4996777;28;20038;-80
2024/01/24 12:29:35;;;;;;;0.10;0.10;;;16.80;78.50;;;;;;4997278;28;20837;-79
2024/01/24 12:32:03;;;;;;;0.10;0.10;;;16.70;78.10;;;;;;4995827;28;20502;-79
2024/01/24 12:34:29;;;;;;;0.00;0.00;;;16.80;78.40;;;;;;4996860;28;20114;-79
2024/01/24 12:36:57;;;;;;;0.00;0.00;;;16.90;78.30;;;;;;4997061;28;20161;-79
2024/01/24 12:39:43;;;;;;;0.08;0.08;;;16.80;78.30;;;;;;4996870;28;20482;-79
2024/01/24 12:42:08;;;;;;;0.10;0.10;;;16.60;79.10;;;;;;4993356;28;20046;-79
2024/01/24 12:44:35;;;;;;;0.00;0.00;;;16.50;79.40;;;;;;4985725;28;20074;-79
2024/01/24 12:47:01;;;;;;;0.00;0.00;;;16.50;79.80;;;;;;4977754;28;20027;-79
2024/01/24 12:49:26;;;;;;;0.05;0.05;;;16.30;80.70;;;;;;4992825;28;20061;-79
2024/01/24 12:51:53;;;;;;;0.00;0.00;;;16.20;81.50;;;;;;4993955;28;20490;-78
2024/01/24 12:54:19;;;;;;;0.10;0.10;;;16.10;82.40;;;;;;4994903;28;20076;-79
2024/01/24 12:56:48;;;;;;;0.00;0.00;;;16.00;83.00;;;;;;4993482;28;20449;-78
2024/01/24 12:59:15;;;;;;;0.00;0.00;;;16.00;83.30;;;;;;4988567;28;20497;-78
2024/01/24 13:01:41;;;;;;;0.00;0.00;;;16.00;83.60;;;;;;4986292;28;20027;-78
2024/01/24 13:04:07;;;;;;;0.10;0.10;;;16.10;83.80;;;;;;4995475;28;20023;-79
2024/01/24 13:06:33;;;;;;;0.10;0.10;;;16.20;83.90;;;;;;4992165;28;20033;-78
2024/01/24 13:08:59;;;;;;;0.10;0.10;;;16.30;83.80;;;;;;4992622;28;20100;-80
2024/01/24 13:11:24;;;;;;;0.10;0.10;;;16.30;83.90;;;;;;4995076;28;20030;-79
2024/01/24 13:13:50;;;;;;;0.10;0.10;;;16.30;83.70;;;;;;4990992;28;20045;-79
2024/01/24 13:16:16;;;;;;;0.10;0.10;;;16.40;83.80;;;;;;4990886;28;20027;-79
2024/01/24 13:18:42;;;;;;;0.00;0.00;;;16.50;83.70;;;;;;5000910;28;20026;-79
2024/01/24 13:21:07;;;;;;;0.05;0.05;;;16.40;83.80;;;;;;5001877;28;20033;-78
2024/01/24 13:23:33;;;;;;;0.10;0.10;;;16.40;83.90;;;;;;5002674;28;20099;-78
2024/01/24 13:25:59;;;;;;;0.10;0.10;;;16.30;83.80;;;;;;5001288;28;20034;-79
2024/01/24 13:28:25;;;;;;;0.10;0.10;;;16.30;83.70;;;;;;5001690;28;20026;-79
2024/01/24 13:30:50;;;;;;;0.00;0.00;;;16.30;83.80;;;;;;5002631;28;20065;-79
2024/01/24 13:33:16;;;;;;;0.00;0.00;;;16.30;83.90;;;;;;5003004;28;20466;-79
2024/01/24 13:35:42;;;;;;;0.00;0.00;;;16.30;83.90;;;;;;4992732;28;20026;-79
2024/01/24 13:38:08;;;;;;;0.00;0.00;;;16.30;84.00;;;;;;4983459;28;20042;-79
2024/01/24 13:40:34;;;;;;;0.00;0.00;;;16.30;83.90;;;;;;4991516;28;20030;-79
2024/01/24 13:42:59;;;;;;;0.10;0.10;;;16.20;84.10;;;;;;5002874;28;20033;-79
2024/01/24 13:45:25;;;;;;;0.10;0.10;;;16.10;84.50;;;;;;4990549;28;20529;-79
2024/01/24 13:47:51;;;;;;;0.10;0.10;;;16.00;84.80;;;;;;4983614;28;20107;-79
2024/01/24 13:50:16;;;;;;;0.10;0.10;;;15.90;85.00;;;;;;4998946;28;20034;-79
2024/01/24 13:52:42;;;;;;;0.10;0.10;;;15.90;84.90;;;;;;5002412;28;20114;-79
2024/01/24 13:55:08;;;;;;;0.10;0.10;;;16.00;85.10;;;;;;5003037;28;20136;-79
2024/01/24 13:57:33;;;;;;;0.10;0.10;;;16.00;85.20;;;;;;5001838;28;20553;-79
2024/01/24 13:59:59;;;;;;;0.00;0.00;;;15.90;85.20;;;;;;5002335;28;20026;-79
2024/01/24 14:02:25;;;;;;;0.10;0.10;;;15.90;85.20;;;;;;5002904;28;20038;-79
2024/01/24 14:04:50;;;;;;;0.00;0.00;;;15.80;85.30;;;;;;5002918;28;20026;-79
2024/01/24 14:07:16;;;;;;;0.10;0.10;;;15.80;85.50;;;;;;5002047;28;20041;-79
2024/01/24 14:09:41;;;;;;;0.00;0.00;;;15.80;85.70;;;;;;5002977;28;20026;-79
2024/01/24 14:12:08;;;;;;;0.03;0.03;;;15.70;85.90;;;;;;5002731;28;20141;-79
2024/01/24 14:14:34;;;;;;;0.10;0.10;;;15.80;85.90;;;;;;4999770;28;20068;-78
2024/01/24 14:16:59;;;;;;;0.10;0.10;;;15.80;86.00;;;;;;4994875;28;20034;-78
2024/01/24 14:19:25;;;;;;;0.00;0.00;;;15.80;85.90;;;;;;4979099;28;20031;-79
2024/01/24 14:21:52;;;;;;;0.10;0.10;;;15.70;86.00;;;;;;4980285;28;20019;-79
2024/01/24 14:24:18;;;;;;;0.00;0.00;;;15.70;86.10;;;;;;4980923;28;20382;-79
2024/01/24 14:26:43;;;;;;;0.10;0.10;;;15.70;86.20;;;;;;4999677;28;20037;-79
2024/01/24 14:29:09;;;;;;;0.00;0.00;;;15.80;86.10;;;;;;4999580;28;20030;-79
2024/01/24 14:31:35;;;;;;;0.10;0.10;;;15.80;86.10;;;;;;4997264;28;20136;-78
2024/01/24 14:34:00;;;;;;;0.10;0.10;;;15.80;86.10;;;;;;4995872;28;20104;-79
2024/01/24 14:36:33;;;;;;;0.10;0.10;;;15.80;86.20;;;;;;4999564;28;20521;-80
2024/01/24 14:38:58;;;;;;;0.08;0.08;;;15.80;85.90;;;;;;4997986;28;20026;-78
2024/01/24 14:41:24;;;;;;;0.10;0.10;;;15.80;85.70;;;;;;4995199;28;20128;-79
2024/01/24 14:43:50;;;;;;;0.10;0.10;;;15.80;85.80;;;;;;4994185;28;20027;-78
2024/01/24 14:46:15;;;;;;;0.10;0.10;;;15.80;85.90;;;;;;4993538;28;20035;-78
2024/01/24 14:48:41;;;;;;;0.00;0.00;;;15.80;85.80;;;;;;4994836;28;20029;-77
2024/01/24 14:51:07;;;;;;;0.10;0.10;;;15.80;85.80;;;;;;4992315;28;20393;-77
2024/01/24 14:53:32;;;;;;;0.00;0.00;;;15.70;85.90;;;;;;4983527;28;20030;-77
2024/01/24 14:55:58;;;;;;;0.05;0.05;;;15.70;86.10;;;;;;4997865;28;20030;-77
2024/01/24 14:58:24;;;;;;;0.00;0.00;;;15.70;86.10;;;;;;4996762;28;20022;-77
2024/01/24 15:00:50;;;;;;;0.08;0.08;;;15.70;86.10;;;;;;4991143;28;20034;-77
2024/01/24 15:03:15;;;;;;;0.00;0.00;;;15.60;86.10;;;;;;4992253;28;20040;-77
2024/01/24 15:05:42;;;;;;;0.10;0.10;;;15.70;86.10;;;;;;4989809;28;20019;-77
2024/01/24 15:08:08;;;;;;;0.10;0.10;;;15.80;86.00;;;;;;4989253;28;20045;-78
2024/01/24 15:10:33;;;;;;;0.00;0.00;;;15.70;86.10;;;;;;4991109;28;20027;-78
2024/01/24 15:12:59;;;;;;;0.00;0.00;;;15.80;86.20;;;;;;4988091;28;20050;-78
2024/01/24 15:15:26;;;;;;;0.00;0.00;;;15.80;86.10;;;;;;4988153;28;20022;-77
2024/01/24 15:17:52;;;;;;;0.00;0.00;;;15.80;86.00;;;;;;4991184;28;20468;-77
2024/01/24 15:20:18;;;;;;;0.10;0.10;;;15.80;86.00;;;;;;4988061;28;20058;-78
2024/01/24 15:22:44;;;;;;;0.00;0.00;;;15.80;85.90;;;;;;4988009;28;20014;-78
2024/01/24 15:25:10;;;;;;;0.10;0.10;;;15.70;86.20;;;;;;4990889;28;20027;-78
2024/01/24 15:27:35;;;;;;;0.05;0.05;;;15.70;86.10;;;;;;4989594;28;20493;-78
2024/01/24 15:30:01;;;;;;;0.00;0.00;;;15.70;86.20;;;;;;4988079;28;20061;-78
2024/01/24 15:32:28;;;;;;;0.00;0.00;;;15.70;86.10;;;;;;4993129;28;20085;-78
2024/01/24 15:34:54;;;;;;;0.00;0.00;;;15.70;86.10;;;;;;4988556;28;20033;-78
2024/01/24 15:37:20;;;;;;;0.10;0.10;;;15.60;86.20;;;;;;4989712;28;20113;-78
2024/01/24 15:39:47;;;;;;;0.05;0.05;;;15.60;86.10;;;;;;4989296;28;20049;-79
2024/01/24 15:42:18;;;;;;;0.10;0.10;;;15.60;86.10;;;;;;4989421;28;20474;-77
2024/01/24 15:44:44;;;;;;;0.10;0.10;;;15.60;85.90;;;;;;4986810;28;20026;-77
2024/01/24 15:47:10;;;;;;;0.10;0.10;;;15.50;86.00;;;;;;4995856;28;20072;-81
2024/01/24 15:49:37;;;;;;;0.00;0.00;;;15.50;86.00;;;;;;4996660;28;20034;-77
2024/01/24 15:52:02;;;;;;;0.10;0.10;;;15.50;86.20;;;;;;4990114;28;20030;-76
2024/01/24 15:54:28;;;;;;;0.00;0.00;;;15.50;86.50;;;;;;4987981;28;20037;-78
2024/01/24 15:56:54;;;;;;;0.00;0.00;;;15.50;86.50;;;;;;4986618;28;20478;-76
2024/01/24 15:59:19;;;;;;;0.00;0.00;;;15.60;86.40;;;;;;4992366;28;20033;-76
2024/01/24 16:01:47;;;;;;;0.10;0.10;;;15.60;86.40;;;;;;4996526;28;20081;-77
2024/01/24 16:04:13;;;;;;;0.00;0.00;;;15.50;86.30;;;;;;4994151;28;20026;-76
2024/01/24 16:06:39;;;;;;;0.00;0.00;;;15.50;86.40;;;;;;4991456;28;20046;-75
2024/01/24 16:09:04;;;;;;;0.10;0.10;;;15.50;86.40;;;;;;4992633;28;20375;-75
2024/01/24 16:11:30;;;;;;;0.10;0.10;;;15.50;86.40;;;;;;4993943;28;20030;-77
2024/01/24 16:13:57;;;;;;;0.10;0.10;;;15.50;86.60;;;;;;4987357;28;20556;-76
2024/01/24 16:16:23;;;;;;;0.10;0.10;;;15.50;86.60;;;;;;4986710;28;20022;-77
2024/01/24 16:18:49;;;;;;;0.00;0.00;;;15.50;86.70;;;;;;4988002;28;20019;-77
2024/01/24 16:21:15;;;;;;;0.00;0.00;;;15.50;86.70;;;;;;4990763;28;20015;-77
2024/01/24 16:23:41;;;;;;;0.00;0.00;;;15.50;86.70;;;;;;4987486;28;20055;-77
2024/01/24 16:26:07;;;;;;;0.00;0.00;;;15.50;86.70;;;;;;4989288;28;20026;-77
2024/01/24 16:28:33;;;;;;;0.10;0.10;;;15.40;86.90;;;;;;4989070;28;20034;-79
2024/01/24 16:30:58;;;;;;;0.10;0.10;;;15.40;87.00;;;;;;4990683;28;20414;-78
2024/01/24 16:33:24;;;;;;;0.10;0.10;;;15.40;87.10;;;;;;4995365;28;20026;-78
2024/01/24 16:35:50;;;;;;;0.10;0.10;;;15.30;87.20;;;;;;4995267;28;20030;-77
2024/01/24 16:38:16;;;;;;;0.10;0.10;;;15.30;87.40;;;;;;4993516;28;20113;-77
2024/01/24 16:40:41;;;;;;;0.00;0.00;;;15.30;87.20;;;;;;4994719;28;20050;-77
2024/01/24 16:43:07;;;;;;;0.10;0.10;;;15.30;87.20;;;;;;4993154;28;20042;-77
2024/01/24 16:45:32;;;;;;;0.00;0.00;;;15.30;87.60;;;;;;4993147;28;20117;-77
2024/01/24 16:47:58;;;;;;;0.00;0.00;;;15.20;87.50;;;;;;4992968;28;20027;-76
2024/01/24 16:50:24;;;;;;;0.00;0.00;;;15.30;87.60;;;;;;4993889;28;20076;-77
2024/01/24 16:52:49;;;;;;;0.00;0.00;;;15.20;87.70;;;;;;4985485;28;20069;-77
2024/01/24 16:55:15;;;;;;;0.00;0.00;;;15.20;87.90;;;;;;4987622;28;20030;-78
2024/01/24 16:57:41;;;;;;;0.10;0.10;;;15.10;88.00;;;;;;4988209;28;20027;-77
2024/01/24 17:00:08;;;;;;;0.00;0.00;;;15.10;88.10;;;;;;4988691;28;20037;-76
2024/01/24 17:02:35;;;;;;;0.10;0.10;;;15.10;87.90;;;;;;4990369;28;20022;-78
2024/01/24 17:05:03;;;;;;;0.10;0.10;;;15.10;88.10;;;;;;4987952;28;20014;-77
2024/01/24 17:07:29;;;;;;;0.00;0.00;;;15.10;88.00;;;;;;4990433;28;20062;-77
2024/01/24 17:09:55;;;;;;;0.00;0.00;;;15.10;88.00;;;;;;4986146;28;20118;-77
2024/01/24 17:12:21;;;;;;;0.00;0.00;;;15.00;88.00;;;;;;4986758;28;20069;-77
2024/01/24 17:14:47;;;;;;;0.00;0.00;;;15.10;88.00;;;;;;4987497;28;20023;-76
2024/01/24 17:17:13;;;;;;;0.10;0.10;;;15.00;88.10;;;;;;4975939;28;20035;-77
2024/01/24 17:19:39;;;;;;;0.08;0.08;;;15.00;88.10;;;;;;4986376;28;20110;-77
2024/01/24 17:22:05;;;;;;;0.00;0.00;;;15.00;88.10;;;;;;4985564;28;20027;-84
2024/01/24 17:24:33;;;;;;;0.00;0.00;;;15.00;88.00;;;;;;4996674;28;20022;-89
2024/01/24 17:26:58;;;;;;;0.00;0.00;;;15.00;87.90;;;;;;4996222;28;20042;-81
2024/01/24 17:29:24;;;;;;;0.10;0.10;;;15.00;87.90;;;;;;4996545;28;20022;-81
2024/01/24 17:31:50;;;;;;;0.00;0.00;;;14.90;88.00;;;;;;4994319;28;20057;-85
2024/01/24 17:34:15;;;;;;;0.00;0.00;;;14.90;88.10;;;;;;4995303;28;20041;-86
2024/01/24 17:36:41;;;;;;;0.00;0.00;;;14.90;88.10;;;;;;4995783;28;20038;-86
2024/01/24 17:39:07;;;;;;;0.00;0.00;;;14.90;88.10;;;;;;4988157;28;20065;-81
2024/01/24 17:41:32;;;;;;;0.10;0.10;;;14.80;88.00;;;;;;4991271;28;20018;-82
2024/01/24 17:43:58;;;;;;;0.00;0.00;;;14.80;88.10;;;;;;4995237;28;20027;-81
2024/01/24 17:46:24;;;;;;;0.00;0.00;;;14.80;88.00;;;;;;4989743;28;20035;-80
2024/01/24 17:48:50;;;;;;;0.00;0.00;;;14.80;87.90;;;;;;4985486;28;20037;-81
2024/01/24 17:51:16;;;;;;;0.00;0.00;;;14.80;87.90;;;;;;4996434;28;20038;-80
2024/01/24 17:53:42;;;;;;;0.00;0.00;;;14.80;87.80;;;;;;4998778;28;20823;-80
2024/01/24 17:56:07;;;;;;;0.00;0.00;;;14.70;87.70;;;;;;4997911;28;20097;-80
2024/01/24 17:58:34;;;;;;;0.00;0.00;;;14.70;87.80;;;;;;4996504;28;20034;-81
2024/01/24 18:01:00;;;;;;;0.00;0.00;;;14.70;88.00;;;;;;4998291;28;20030;-80
2024/01/24 18:03:26;;;;;;;0.03;0.03;;;14.70;87.90;;;;;;4999569;28;20846;-80
2024/01/24 18:05:52;;;;;;;0.00;0.00;;;14.70;87.80;;;;;;4994766;28;20110;-80
2024/01/24 18:08:18;;;;;;;0.00;0.00;;;14.70;87.80;;;;;;4981060;28;20024;-80
2024/01/24 18:10:44;;;;;;;0.00;0.00;;;14.80;87.60;;;;;;4992952;28;20402;-80
2024/01/24 18:13:09;;;;;;;0.10;0.10;;;14.80;87.50;;;;;;4995295;28;20030;-84
2024/01/24 18:15:49;;;;;;;0.00;0.00;;;14.70;87.60;;;;;;4999028;28;20739;-88
2024/01/24 18:18:14;;;;;;;0.00;0.00;;;14.70;87.60;;;;;;4999510;28;20045;-78